sensor_id;sensor_type;location;lat;lon;timestamp;pressure;altitude;pressure_sealevel;temperature;humidity
13015;BME280;6573;57.696;11.950;2023-01-05T00:01:37;98867.81;;;4.89;100.00
13015;BME280;6573;57.696;11.950;2023-01-05T00:04:06;98882.53;;;4.92;100.00
13015;BME280;6573;57.696;11.950;2023-01-05T00:06:34;98871.34;;;4.82;100.00
13015;BME280;6573;57.696;11.950;2023-01-05T00:09:03;98873.09;;;4.83;100.00
13015;BME280;6573;57.696;11.950;2023-01-05T00:11:33;98884.38;;;4.84;100.00
13015;BME280;6573;57.696;11.950;2023-01-05T00:14:20;98837.81;;;4.52;100.00
13015;BME280;6573;57.696;11.950;2023-01-05T00:17:08;98883.53;;;4.80;100.00
13015;BME280;6573;57.696;11.950;2023-01-05T00:19:55;98872.34;;;4.69;100.00
13015;BME280;6573;57.696;11.950;2023-01-05T00:22:44;98891.47;;;4.67;100.00
13015;BME280;6573;57.696;11.950;2023-01-05T00:25:14;98906.19;;;4.72;100.00
13015;BME280;6573;57.696;11.950;2023-01-05T00:27:45;98901.91;;;4.68;100.00
13015;BME280;6573;57.696;11.950;2023-01-05T00:30:18;98908.78;;;4.72;100.00
13015;BME280;6573;57.696;11.950;2023-01-05T00:32:46;98921.78;;;4.78;100.00
13015;BME280;6573;57.696;11.950;2023-01-05T00:35:15;98919.19;;;4.75;100.00
13015;BME280;6573;57.696;11.950;2023-01-05T00:37:44;98921.81;;;4.72;100.00
13015;BME280;6573;57.696;11.950;2023-01-05T00:40:14;98911.53;;;4.58;100.00
13015;BME280;6573;57.696;11.950;2023-01-05T00:42:45;98927.13;;;4.60;100.00
13015;BME280;6573;57.696;11.950;2023-01-05T00:45:15;98936.69;;;4.61;100.00
13015;BME280;6573;57.696;11.950;2023-01-05T00:47:44;98934.09;;;4.61;100.00
13015;BME280;6573;57.696;11.950;2023-01-05T00:50:15;98936.69;;;4.61;100.00
13015;BME280;6573;57.696;11.950;2023-01-05T00:52:44;98935.03;;;4.52;100.00
13015;BME280;6573;57.696;11.950;2023-01-05T00:55:12;98947.16;;;4.52;100.00
13015;BME280;6573;57.696;11.950;2023-01-05T00:57:41;98949.75;;;4.55;100.00
13015;BME280;6573;57.696;11.950;2023-01-05T01:00:14;98968.91;;;4.48;100.00
13015;BME280;6573;57.696;11.950;2023-01-05T01:02:42;98970.66;;;4.49;100.00
13015;BME280;6573;57.696;11.950;2023-01-05T01:05:11;98962.84;;;4.46;100.00
13015;BME280;6573;57.696;11.950;2023-01-05T01:07:40;98966.25;;;4.52;100.00
13015;BME280;6573;57.696;11.950;2023-01-05T01:10:09;98980.19;;;4.48;100.00
13015;BME280;6573;57.696;11.950;2023-01-05T01:12:38;98986.28;;;4.46;100.00
13015;BME280;6573;57.696;11.950;2023-01-05T01:15:06;98983.63;;;4.50;100.00
13015;BME280;6573;57.696;11.950;2023-01-05T01:17:36;98986.31;;;4.40;100.00
13015;BME280;6573;57.696;11.950;2023-01-05T01:20:06;98982.00;;;4.39;100.00
13015;BME280;6573;57.696;11.950;2023-01-05T01:22:34;99010.56;;;4.48;100.00
13015;BME280;6573;57.696;11.950;2023-01-05T01:25:03;99014.06;;;4.44;100.00
13015;BME280;6573;57.696;11.950;2023-01-05T01:27:32;99017.53;;;4.40;100.00
13015;BME280;6573;57.696;11.950;2023-01-05T01:30:00;99018.41;;;4.42;100.00
13015;BME280;6573;57.696;11.950;2023-01-05T01:32:28;99010.59;;;4.42;100.00
13015;BME280;6573;57.696;11.950;2023-01-05T01:34:58;99012.31;;;4.43;100.00
13015;BME280;6573;57.696;11.950;2023-01-05T01:37:26;99014.03;;;4.47;100.00
13015;BME280;6573;57.696;11.950;2023-01-05T01:39:54;99017.63;;;4.31;100.00
13015;BME280;6573;57.696;11.950;2023-01-05T01:42:23;99034.91;;;4.41;100.00
13015;BME280;6573;57.696;11.950;2023-01-05T01:44:53;99030.66;;;4.28;100.00
13015;BME280;6573;57.696;11.950;2023-01-05T01:47:33;99044.56;;;4.22;100.00
13015;BME280;6573;57.696;11.950;2023-01-05T01:50:09;99042.84;;;4.21;100.00
13015;BME280;6573;57.696;11.950;2023-01-05T01:52:39;99061.88;;;4.25;100.00
13015;BME280;6573;57.696;11.950;2023-01-05T01:55:08;99059.34;;;4.16;100.00
13015;BME280;6573;57.696;11.950;2023-01-05T01:57:37;99058.41;;;4.27;100.00
13015;BME280;6573;57.696;11.950;2023-01-05T02:00:08;99084.44;;;4.23;100.00
13015;BME280;6573;57.696;11.950;2023-01-05T02:02:39;99085.28;;;4.28;100.00
13015;BME280;6573;57.696;11.950;2023-01-05T02:05:10;99090.56;;;4.19;100.00
13015;BME280;6573;57.696;11.950;2023-01-05T02:07:43;99081.91;;;4.17;100.00
13015;BME280;6573;57.696;11.950;2023-01-05T02:10:12;99081.91;;;4.14;100.00
13015;BME280;6573;57.696;11.950;2023-01-05T02:12:52;99094.06;;;4.07;100.00
13015;BME280;6573;57.696;11.950;2023-01-05T02:15:32;99102.72;;;4.11;100.00
13015;BME280;6573;57.696;11.950;2023-01-05T02:18:18;99112.28;;;4.10;100.00
13015;BME280;6573;57.696;11.950;2023-01-05T02:21:04;99120.97;;;4.06;100.00
13015;BME280;6573;57.696;11.950;2023-01-05T02:26:52;99129.59;;;4.10;100.00
13015;BME280;6573;57.696;11.950;2023-01-05T02:32:46;99136.53;;;4.12;100.00
13015;BME280;6573;57.696;11.950;2023-01-05T02:35:24;99139.16;;;4.14;100.00
13015;BME280;6573;57.696;11.950;2023-01-05T02:37:58;99139.19;;;4.06;100.00
13015;BME280;6573;57.696;11.950;2023-01-05T02:40:31;99142.63;;;4.10;100.00
13015;BME280;6573;57.696;11.950;2023-01-05T02:43:02;99109.78;;;3.81;100.00
13015;BME280;6573;57.696;11.950;2023-01-05T02:45:31;99167.78;;;4.11;100.00
13015;BME280;6573;57.696;11.950;2023-01-05T02:48:01;99177.31;;;4.09;100.00
13015;BME280;6573;57.696;11.950;2023-01-05T02:50:34;99206.81;;;4.05;100.00
13015;BME280;6573;57.696;11.950;2023-01-05T02:53:06;99213.75;;;4.06;100.00
13015;BME280;6573;57.696;11.950;2023-01-05T02:55:40;99232.81;;;4.11;100.00
13015;BME280;6573;57.696;11.950;2023-01-05T02:58:13;99229.31;;;4.15;100.00
13015;BME280;6573;57.696;11.950;2023-01-05T03:00:46;99227.63;;;4.11;100.00
13015;BME280;6573;57.696;11.950;2023-01-05T03:03:21;99232.81;;;4.11;100.00
13015;BME280;6573;57.696;11.950;2023-01-05T03:05:55;99253.63;;;4.17;100.00
13015;BME280;6573;57.696;11.950;2023-01-05T03:08:27;99238.03;;;4.05;100.00
13015;BME280;6573;57.696;11.950;2023-01-05T03:11:01;99274.41;;;4.20;100.00
13015;BME280;6573;57.696;11.950;2023-01-05T03:13:55;99280.53;;;4.14;100.00
13015;BME280;6573;57.696;11.950;2023-01-05T03:16:27;99265.75;;;4.07;100.00
13015;BME280;6573;57.696;11.950;2023-01-05T03:19:01;99290.03;;;4.20;100.00
13015;BME280;6573;57.696;11.950;2023-01-05T03:21:48;99257.13;;;3.94;100.00
13015;BME280;6573;57.696;11.950;2023-01-05T03:24:36;99257.13;;;3.88;100.00
13015;BME280;6573;57.696;11.950;2023-01-05T03:27:23;99301.31;;;4.19;100.00
13015;BME280;6573;57.696;11.950;2023-01-05T03:30:10;99307.41;;;4.13;100.00
13015;BME280;6573;57.696;11.950;2023-01-05T03:33:02;99331.69;;;4.11;100.00
13015;BME280;6573;57.696;11.950;2023-01-05T03:35:53;99339.50;;;4.09;100.00
13015;BME280;6573;57.696;11.950;2023-01-05T03:38:29;99349.03;;;4.06;100.00
13015;BME280;6573;57.696;11.950;2023-01-05T03:41:00;99349.03;;;4.09;100.00
13015;BME280;6573;57.696;11.950;2023-01-05T03:43:32;99336.91;;;3.99;100.00
13015;BME280;6573;57.696;11.950;2023-01-05T03:46:08;99357.69;;;3.96;100.00
13015;BME280;6573;57.696;11.950;2023-01-05T03:48:37;99366.38;;;3.98;100.00
13015;BME280;6573;57.696;11.950;2023-01-05T03:51:07;99350.75;;;3.73;100.00
13015;BME280;6573;57.696;11.950;2023-01-05T03:53:35;99388.91;;;3.96;100.00
13015;BME280;6573;57.696;11.950;2023-01-05T03:56:04;99411.47;;;3.97;100.00
13015;BME280;6573;57.696;11.950;2023-01-05T03:58:32;99401.06;;;4.03;100.00
13015;BME280;6573;57.696;11.950;2023-01-05T04:01:00;99415.81;;;3.99;100.00
13015;BME280;6573;57.696;11.950;2023-01-05T04:03:29;99411.47;;;4.03;100.00
13015;BME280;6573;57.696;11.950;2023-01-05T04:05:58;99368.09;;;3.68;100.00
13015;BME280;6573;57.696;11.950;2023-01-05T04:08:28;99404.53;;;3.86;100.00
13015;BME280;6573;57.696;11.950;2023-01-05T04:10:57;99418.41;;;3.79;100.00
13015;BME280;6573;57.696;11.950;2023-01-05T04:13:36;99421.84;;;3.81;100.00
13015;BME280;6573;57.696;11.950;2023-01-05T04:16:05;99434.00;;;3.85;100.00
13015;BME280;6573;57.696;11.950;2023-01-05T04:18:33;99447.84;;;3.87;100.00
13015;BME280;6573;57.696;11.950;2023-01-05T04:21:02;99439.19;;;3.85;100.00
13015;BME280;6573;57.696;11.950;2023-01-05T04:23:32;99451.31;;;3.80;100.00
13015;BME280;6573;57.696;11.950;2023-01-05T04:26:01;99464.34;;;3.83;100.00
13015;BME280;6573;57.696;11.950;2023-01-05T04:28:29;99466.91;;;3.74;100.00
13015;BME280;6573;57.696;11.950;2023-01-05T04:30:57;99482.50;;;3.71;100.00
13015;BME280;6573;57.696;11.950;2023-01-05T04:33:26;99481.63;;;3.71;100.00
13015;BME280;6573;57.696;11.950;2023-01-05T04:35:54;99491.19;;;3.73;100.00
13015;BME280;6573;57.696;11.950;2023-01-05T04:38:22;99507.66;;;3.74;100.00
13015;BME280;6573;57.696;11.950;2023-01-05T04:40:51;99516.31;;;3.73;100.00
13015;BME280;6573;57.696;11.950;2023-01-05T04:43:20;99536.28;;;3.81;100.00
13015;BME280;6573;57.696;11.950;2023-01-05T04:45:49;99538.03;;;3.79;100.00
13015;BME280;6573;57.696;11.950;2023-01-05T04:48:17;99551.88;;;3.78;100.00
13015;BME280;6573;57.696;11.950;2023-01-05T04:50:51;99546.66;;;3.75;100.00
13015;BME280;6573;57.696;11.950;2023-01-05T04:53:20;99557.03;;;3.72;100.00
13015;BME280;6573;57.696;11.950;2023-01-05T04:55:49;99563.13;;;3.73;100.00
13015;BME280;6573;57.696;11.950;2023-01-05T04:58:19;99575.25;;;3.71;100.00
13015;BME280;6573;57.696;11.950;2023-01-05T05:00:47;99576.09;;;3.68;100.00
13015;BME280;6573;57.696;11.950;2023-01-05T05:03:16;99596.06;;;3.69;100.00
13015;BME280;6573;57.696;11.950;2023-01-05T05:05:44;99598.63;;;3.72;100.00
13015;BME280;6573;57.696;11.950;2023-01-05T05:08:13;99607.31;;;3.71;100.00
13015;BME280;6573;57.696;11.950;2023-01-05T05:10:41;99609.00;;;3.63;100.00
13015;BME280;6573;57.696;11.950;2023-01-05T05:13:09;99622.91;;;3.68;100.00
13015;BME280;6573;57.696;11.950;2023-01-05T05:15:39;99596.81;;;3.47;100.00
13015;BME280;6573;57.696;11.950;2023-01-05T05:18:07;99653.28;;;3.74;100.00
13015;BME280;6573;57.696;11.950;2023-01-05T05:20:36;99660.19;;;3.75;100.00
13015;BME280;6573;57.696;11.950;2023-01-05T05:23:04;99652.34;;;3.67;100.00
13015;BME280;6573;57.696;11.950;2023-01-05T05:25:32;99673.22;;;3.73;100.00
13015;BME280;6573;57.696;11.950;2023-01-05T05:28:00;99690.56;;;3.74;100.00
13015;BME280;6573;57.696;11.950;2023-01-05T05:30:28;99704.34;;;3.67;100.00
13015;BME280;6573;57.696;11.950;2023-01-05T05:32:58;99723.47;;;3.69;100.00
13015;BME280;6573;57.696;11.950;2023-01-05T05:35:26;99740.78;;;3.70;100.00
13015;BME280;6573;57.696;11.950;2023-01-05T05:37:54;99750.34;;;3.71;100.00
13015;BME280;6573;57.696;11.950;2023-01-05T05:40:22;99744.31;;;3.78;100.00
13015;BME280;6573;57.696;11.950;2023-01-05T05:42:52;99752.94;;;3.71;100.00
13015;BME280;6573;57.696;11.950;2023-01-05T05:45:20;99739.06;;;3.69;100.00
13015;BME280;6573;57.696;11.950;2023-01-05T05:47:48;99723.28;;;3.48;100.00
13015;BME280;6573;57.696;11.950;2023-01-05T05:50:18;99745.88;;;3.52;100.00
13015;BME280;6573;57.696;11.950;2023-01-05T05:52:46;99771.09;;;3.64;100.00
13015;BME280;6573;57.696;11.950;2023-01-05T05:55:14;99777.16;;;3.64;100.00
13015;BME280;6573;57.696;11.950;2023-01-05T05:57:43;99797.94;;;3.61;100.00
13015;BME280;6573;57.696;11.950;2023-01-05T06:00:12;99798.75;;;3.57;100.00
13015;BME280;6573;57.696;11.950;2023-01-05T06:02:41;99818.78;;;3.64;100.00
13015;BME280;6573;57.696;11.950;2023-01-05T06:05:09;99836.94;;;3.63;100.00
13015;BME280;6573;57.696;11.950;2023-01-05T06:07:39;99838.66;;;3.61;100.00
13015;BME280;6573;57.696;11.950;2023-01-05T06:10:08;99846.47;;;3.59;100.00
13015;BME280;6573;57.696;11.950;2023-01-05T06:12:37;99853.41;;;3.63;100.00
13015;BME280;6573;57.696;11.950;2023-01-05T06:15:06;99863.75;;;3.57;100.00
13015;BME280;6573;57.696;11.950;2023-01-05T06:17:34;99869.81;;;3.56;100.00
13015;BME280;6573;57.696;11.950;2023-01-05T06:20:03;99881.06;;;3.55;100.00
13015;BME280;6573;57.696;11.950;2023-01-05T06:22:32;99887.97;;;3.52;100.00
13015;BME280;6573;57.696;11.950;2023-01-05T06:25:01;99895.75;;;3.49;100.00
13015;BME280;6573;57.696;11.950;2023-01-05T06:27:30;99905.16;;;3.39;100.00
13015;BME280;6573;57.696;11.950;2023-01-05T06:29:58;99905.22;;;3.45;100.00
13015;BME280;6573;57.696;11.950;2023-01-05T06:32:26;99906.94;;;3.43;100.00
13015;BME280;6573;57.696;11.950;2023-01-05T06:34:54;99917.34;;;3.43;100.00
13015;BME280;6573;57.696;11.950;2023-01-05T06:37:22;99938.06;;;3.37;100.00
13015;BME280;6573;57.696;11.950;2023-01-05T06:39:51;99949.41;;;3.44;100.00
13015;BME280;6573;57.696;11.950;2023-01-05T06:42:22;99953.56;;;3.31;100.00
13015;BME280;6573;57.696;11.950;2023-01-05T06:44:51;99965.94;;;3.50;100.00
13015;BME280;6573;57.696;11.950;2023-01-05T06:47:19;99983.19;;;3.45;100.00
13015;BME280;6573;57.696;11.950;2023-01-05T06:49:47;100001.44;;;3.47;100.00
13015;BME280;6573;57.696;11.950;2023-01-05T06:52:15;100010.88;;;3.40;100.00
13015;BME280;6573;57.696;11.950;2023-01-05T06:54:43;100022.19;;;3.45;100.00
13015;BME280;6573;57.696;11.950;2023-01-05T06:57:12;100019.59;;;3.45;100.00
13015;BME280;6573;57.696;11.950;2023-01-05T06:59:41;100029.97;;;3.42;100.00
13015;BME280;6573;57.696;11.950;2023-01-05T07:02:13;100033.38;;;3.37;100.00
13015;BME280;6573;57.696;11.950;2023-01-05T07:04:41;100048.97;;;3.38;100.00
13015;BME280;6573;57.696;11.950;2023-01-05T07:07:10;100050.56;;;3.27;100.00
13015;BME280;6573;57.696;11.950;2023-01-05T07:09:39;100057.53;;;3.31;100.00
13015;BME280;6573;57.696;11.950;2023-01-05T07:12:07;100074.91;;;3.35;100.00
13015;BME280;6573;57.696;11.950;2023-01-05T07:14:36;100090.59;;;3.41;100.00
13015;BME280;6573;57.696;11.950;2023-01-05T07:17:06;100103.59;;;3.40;100.00
13015;BME280;6573;57.696;11.950;2023-01-05T07:19:34;100113.94;;;3.37;100.00
13015;BME280;6573;57.696;11.950;2023-01-05T07:22:02;100109.59;;;3.36;100.00
13015;BME280;6573;57.696;11.950;2023-01-05T07:24:30;100115.47;;;3.24;100.00
13015;BME280;6573;57.696;11.950;2023-01-05T07:26:59;100132.91;;;3.31;100.00
13015;BME280;6573;57.696;11.950;2023-01-05T07:29:35;100149.41;;;3.33;100.00
13015;BME280;6573;57.696;11.950;2023-01-05T07:32:04;100083.81;;;2.94;100.00
13015;BME280;6573;57.696;11.950;2023-01-05T07:34:33;100152.00;;;3.32;100.00
13015;BME280;6573;57.696;11.950;2023-01-05T07:37:01;100149.41;;;3.33;100.00
13015;BME280;6573;57.696;11.950;2023-01-05T07:39:30;100173.66;;;3.32;100.00
13015;BME280;6573;57.696;11.950;2023-01-05T07:41:58;100185.78;;;3.33;100.00
13015;BME280;6573;57.696;11.950;2023-01-05T07:44:26;100199.69;;;3.35;100.00
13015;BME280;6573;57.696;11.950;2023-01-05T07:46:54;100213.44;;;3.28;100.00
13015;BME280;6573;57.696;11.950;2023-01-05T07:49:22;100220.44;;;3.32;100.00
13015;BME280;6573;57.696;11.950;2023-01-05T07:51:52;100229.97;;;3.33;100.00
13015;BME280;6573;57.696;11.950;2023-01-05T07:54:20;100254.31;;;3.37;100.00
13015;BME280;6573;57.696;11.950;2023-01-05T07:56:48;100268.06;;;3.30;100.00
13015;BME280;6573;57.696;11.950;2023-01-05T07:59:16;100272.38;;;3.29;100.00
13015;BME280;6573;57.696;11.950;2023-01-05T08:01:45;100271.41;;;3.24;100.00
13015;BME280;6573;57.696;11.950;2023-01-05T08:04:14;100296.72;;;3.34;100.00
13015;BME280;6573;57.696;11.950;2023-01-05T08:06:42;100300.97;;;3.31;100.00
13015;BME280;6573;57.696;11.950;2023-01-05T08:09:13;100313.94;;;3.29;100.00
13015;BME280;6573;57.696;11.950;2023-01-05T08:11:58;100319.22;;;3.32;100.00
13015;BME280;6573;57.696;11.950;2023-01-05T08:14:27;100290.00;;;3.00;100.00
13015;BME280;6573;57.696;11.950;2023-01-05T08:16:55;100329.47;;;3.26;100.00
13015;BME280;6573;57.696;11.950;2023-01-05T08:19:24;100331.88;;;3.15;100.00
13015;BME280;6573;57.696;11.950;2023-01-05T08:21:52;100336.09;;;3.09;100.00
13015;BME280;6573;57.696;11.950;2023-01-05T08:24:22;100346.41;;;3.06;100.00
13015;BME280;6573;57.696;11.950;2023-01-05T08:26:50;100349.97;;;3.11;100.00
13015;BME280;6573;57.696;11.950;2023-01-05T08:29:19;100361.19;;;3.08;100.00
13015;BME280;6573;57.696;11.950;2023-01-05T08:31:47;100381.00;;;3.02;100.00
13015;BME280;6573;57.696;11.950;2023-01-05T08:34:15;100371.19;;;2.89;100.00
13015;BME280;6573;57.696;11.950;2023-01-05T08:36:45;100377.25;;;2.88;100.00
13015;BME280;6573;57.696;11.950;2023-01-05T08:39:13;100398.03;;;2.88;100.00
13015;BME280;6573;57.696;11.950;2023-01-05T08:41:43;100402.34;;;2.87;100.00
13015;BME280;6573;57.696;11.950;2023-01-05T08:44:12;100315.75;;;2.46;100.00
13015;BME280;6573;57.696;11.950;2023-01-05T08:46:41;100412.16;;;3.02;100.00
13015;BME280;6573;57.696;11.950;2023-01-05T08:49:10;100405.03;;;2.92;100.00
13015;BME280;6573;57.696;11.950;2023-01-05T08:51:38;100416.97;;;2.84;100.00
13015;BME280;6573;57.696;11.950;2023-01-05T08:54:06;100420.28;;;2.77;100.00
13015;BME280;6573;57.696;11.950;2023-01-05T08:56:34;100427.16;;;2.75;100.00
13015;BME280;6573;57.696;11.950;2023-01-05T08:59:06;100426.88;;;2.63;100.00
13015;BME280;6573;57.696;11.950;2023-01-05T09:01:38;100467.03;;;2.77;100.00
13015;BME280;6573;57.696;11.950;2023-01-05T09:04:07;100477.41;;;2.77;100.00
13015;BME280;6573;57.696;11.950;2023-01-05T09:06:36;100488.00;;;2.86;100.00
13015;BME280;6573;57.696;11.950;2023-01-05T09:09:04;100471.44;;;2.81;100.00
13015;BME280;6573;57.696;11.950;2023-01-05T09:11:33;100502.03;;;2.94;100.00
13015;BME280;6573;57.696;11.950;2023-01-05T09:14:01;100451.25;;;2.68;100.00
13015;BME280;6573;57.696;11.950;2023-01-05T09:16:33;100493.06;;;2.80;100.00
13015;BME280;6573;57.696;11.950;2023-01-05T09:19:21;100526.25;;;2.93;100.00
13015;BME280;6573;57.696;11.950;2023-01-05T09:21:50;100533.09;;;2.88;100.00
13015;BME280;6573;57.696;11.950;2023-01-05T09:24:19;100532.03;;;2.81;100.00
13015;BME280;6573;57.696;11.950;2023-01-05T09:26:47;100550.41;;;2.89;100.00
13015;BME280;6573;57.696;11.950;2023-01-05T09:29:16;100562.69;;;2.96;100.00
13015;BME280;6573;57.696;11.950;2023-01-05T09:31:45;100550.41;;;2.89;100.00
13015;BME280;6573;57.696;11.950;2023-01-05T09:34:14;100572.97;;;2.90;100.00
13015;BME280;6573;57.696;11.950;2023-01-05T09:36:43;100588.75;;;2.99;100.00
13015;BME280;6573;57.696;11.950;2023-01-05T09:39:12;100564.31;;;2.91;100.00
13015;BME280;6573;57.696;11.950;2023-01-05T09:41:43;100587.56;;;2.85;100.00
13015;BME280;6573;57.696;11.950;2023-01-05T09:44:18;100602.94;;;2.77;100.00
13015;BME280;6573;57.696;11.950;2023-01-05T09:46:50;100559.63;;;2.40;100.00
13015;BME280;6573;57.696;11.950;2023-01-05T09:49:22;100611.53;;;2.75;100.00
13015;BME280;6573;57.696;11.950;2023-01-05T09:51:54;100635.00;;;2.78;100.00
13015;BME280;6573;57.696;11.950;2023-01-05T09:54:27;100635.22;;;2.87;100.00
13015;BME280;6573;57.696;11.950;2023-01-05T09:56:57;100647.53;;;2.94;100.00
13015;BME280;6573;57.696;11.950;2023-01-05T09:59:37;100644.91;;;2.92;100.00
13015;BME280;6573;57.696;11.950;2023-01-05T10:02:17;100644.41;;;2.74;100.00
13015;BME280;6573;57.696;11.950;2023-01-05T10:04:47;100673.59;;;2.97;100.00
13015;BME280;6573;57.696;11.950;2023-01-05T10:07:22;100669.13;;;2.93;100.00
13015;BME280;6573;57.696;11.950;2023-01-05T10:09:58;100675.88;;;2.85;100.00
13015;BME280;6573;57.696;11.950;2023-01-05T10:12:31;100680.06;;;2.80;100.00
13015;BME280;6573;57.696;11.950;2023-01-05T10:15:22;100693.97;;;2.82;100.00
13015;BME280;6573;57.696;11.950;2023-01-05T10:17:51;100697.56;;;2.87;100.00
13015;BME280;6573;57.696;11.950;2023-01-05T10:20:27;100718.44;;;2.90;100.00
13015;BME280;6573;57.696;11.950;2023-01-05T10:23:06;100706.78;;;2.76;100.00
13015;BME280;6573;57.696;11.950;2023-01-05T10:25:45;100718.84;;;2.74;100.00
13015;BME280;6573;57.696;11.950;2023-01-05T10:28:34;100722.31;;;2.73;100.00
13015;BME280;6573;57.696;11.950;2023-01-05T10:31:11;100737.22;;;2.80;100.00
13015;BME280;6573;57.696;11.950;2023-01-05T10:33:48;100739.69;;;2.75;100.00
13015;BME280;6573;57.696;11.950;2023-01-05T10:36:43;100756.41;;;2.85;100.00
13015;BME280;6573;57.696;11.950;2023-01-05T10:39:53;100768.47;;;2.83;100.00
13015;BME280;6573;57.696;11.950;2023-01-05T10:42:36;100764.50;;;2.66;100.00
13015;BME280;6573;57.696;11.950;2023-01-05T10:45:09;100776.75;;;2.70;100.00
13015;BME280;6573;57.696;11.950;2023-01-05T10:47:39;100795.03;;;2.73;100.00
13015;BME280;6573;57.696;11.950;2023-01-05T10:50:30;100801.75;;;2.66;100.00
13015;BME280;6573;57.696;11.950;2023-01-05T10:53:05;100810.09;;;2.86;100.00
13015;BME280;6573;57.696;11.950;2023-01-05T10:55:41;100812.66;;;2.84;100.00
13015;BME280;6573;57.696;11.950;2023-01-05T10:58:22;100810.72;;;2.77;100.00
13015;BME280;6573;57.696;11.950;2023-01-05T11:00:53;100820.22;;;2.77;100.00
13015;BME280;6573;57.696;11.950;2023-01-05T11:03:28;100828.28;;;2.86;100.00
13015;BME280;6573;57.696;11.950;2023-01-05T11:06:23;100823.84;;;2.82;100.00
13015;BME280;6573;57.696;11.950;2023-01-05T11:08:53;100833.25;;;2.78;100.00
13015;BME280;6573;57.696;11.950;2023-01-05T11:11:23;100843.84;;;2.86;100.00
13015;BME280;6573;57.696;11.950;2023-01-05T11:13:54;100832.22;;;2.72;100.00
13015;BME280;6573;57.696;11.950;2023-01-05T11:16:25;100846.09;;;2.74;100.00
13015;BME280;6573;57.696;11.950;2023-01-05T11:18:56;100863.28;;;2.69;100.00
13015;BME280;6573;57.696;11.950;2023-01-05T11:21:38;100840.66;;;2.65;100.00
13015;BME280;6573;57.696;11.950;2023-01-05T11:24:25;100835.78;;;2.45;100.00
13015;BME280;6573;57.696;11.950;2023-01-05T11:26:55;100843.81;;;2.54;100.00
13015;BME280;6573;57.696;11.950;2023-01-05T11:29:26;100865.72;;;2.63;100.00
13015;BME280;6573;57.696;11.950;2023-01-05T11:31:57;100873.75;;;2.72;100.00
13015;BME280;6573;57.696;11.950;2023-01-05T11:34:29;100873.75;;;2.72;100.00
13015;BME280;6573;57.696;11.950;2023-01-05T11:37:03;100889.53;;;2.78;100.00
13015;BME280;6573;57.696;11.950;2023-01-05T11:39:37;100894.72;;;2.78;100.00
13015;BME280;6573;57.696;11.950;2023-01-05T11:42:14;100887.56;;;2.71;100.00
13015;BME280;6573;57.696;11.950;2023-01-05T11:44:53;100906.97;;;2.82;100.00
13015;BME280;6573;57.696;11.950;2023-01-05T11:47:25;100905.28;;;2.84;100.00
13015;BME280;6573;57.696;11.950;2023-01-05T11:50:02;100920.69;;;2.78;100.00
13015;BME280;6573;57.696;11.950;2023-01-05T11:52:38;100911.59;;;2.63;100.00
13015;BME280;6573;57.696;11.950;2023-01-05T11:55:30;100932.47;;;2.67;100.00
13015;BME280;6573;57.696;11.950;2023-01-05T11:58:22;100946.28;;;2.66;100.00
13015;BME280;6573;57.696;11.950;2023-01-05T12:03:59;100887.75;;;2.20;100.00
13015;BME280;6573;57.696;11.950;2023-01-05T12:06:59;100971.97;;;2.56;100.00
13015;BME280;6573;57.696;11.950;2023-01-05T12:09:34;100969.03;;;2.46;100.00
13015;BME280;6573;57.696;11.950;2023-01-05T12:12:22;100963.69;;;2.41;100.00
13015;BME280;6573;57.696;11.950;2023-01-05T12:15:04;100975.31;;;2.52;100.00
13015;BME280;6573;57.696;11.950;2023-01-05T12:17:41;100987.66;;;2.59;100.00
13015;BME280;6573;57.696;11.950;2023-01-05T12:20:34;100992.94;;;2.63;100.00
13015;BME280;6573;57.696;11.950;2023-01-05T12:23:22;100995.44;;;2.59;100.00
13015;BME280;6573;57.696;11.950;2023-01-05T12:26:00;100998.69;;;2.52;100.00
13015;BME280;6573;57.696;11.950;2023-01-05T12:28:57;101007.44;;;2.56;100.00
13015;BME280;6573;57.696;11.950;2023-01-05T12:32:05;100990.78;;;2.49;100.00
13015;BME280;6573;57.696;11.950;2023-01-05T12:35:15;101013.63;;;2.59;100.00
13015;BME280;6573;57.696;11.950;2023-01-05T12:43:48;101043.00;;;2.58;100.00
13015;BME280;6573;57.696;11.950;2023-01-05T12:46:32;101041.25;;;2.57;100.00
13015;BME280;6573;57.696;11.950;2023-01-05T12:49:07;101067.22;;;2.57;100.00
13015;BME280;6573;57.696;11.950;2023-01-05T12:51:42;101067.41;;;2.63;100.00
13015;BME280;6573;57.696;11.950;2023-01-05T12:54:21;101070.94;;;2.66;100.00
13015;BME280;6573;57.696;11.950;2023-01-05T12:56:58;101077.78;;;2.63;100.00
13015;BME280;6573;57.696;11.950;2023-01-05T12:59:31;101074.75;;;2.75;100.00
13015;BME280;6573;57.696;11.950;2023-01-05T13:02:18;101084.66;;;2.61;100.00
13015;BME280;6573;57.696;11.950;2023-01-05T13:04:54;101083.09;;;2.67;100.00
13015;BME280;6573;57.696;11.950;2023-01-05T13:07:29;101065.16;;;2.47;100.00
13015;BME280;6573;57.696;11.950;2023-01-05T13:10:01;101100.47;;;2.68;100.00
13015;BME280;6573;57.696;11.950;2023-01-05T13:12:31;101106.31;;;2.62;100.00
13015;BME280;6573;57.696;11.950;2023-01-05T13:15:11;101112.59;;;2.69;100.00
13015;BME280;6573;57.696;11.950;2023-01-05T13:17:42;101122.88;;;2.66;100.00
13015;BME280;6573;57.696;11.950;2023-01-05T13:20:23;101122.09;;;2.68;100.00
13015;BME280;6573;57.696;11.950;2023-01-05T13:22:58;101136.47;;;2.58;100.00
13015;BME280;6573;57.696;11.950;2023-01-05T13:25:29;101134.94;;;2.63;100.00
13015;BME280;6573;57.696;11.950;2023-01-05T13:27:59;101150.50;;;2.63;100.00
13015;BME280;6573;57.696;11.950;2023-01-05T13:30:31;101142.69;;;2.62;100.00
13015;BME280;6573;57.696;11.950;2023-01-05T13:33:20;101147.09;;;2.65;100.00
13015;BME280;6573;57.696;11.950;2023-01-05T13:36:06;101156.19;;;2.52;100.00
13015;BME280;6573;57.696;11.950;2023-01-05T13:42:03;101162.44;;;2.58;100.00
13015;BME280;6573;57.696;11.950;2023-01-05T13:44:57;101168.88;;;2.44;100.00